createdAt,value
2018-11-22T00:00:27.523Z,0.00
2018-11-22T00:01:27.474Z,0.00
2018-11-22T00:02:27.427Z,0.00
2018-11-22T00:03:27.380Z,0.00
2018-11-22T00:04:27.337Z,0.00
2018-11-22T00:05:27.284Z,0.00
2018-11-22T00:06:27.236Z,0.00
2018-11-22T00:07:27.190Z,0.00
2018-11-22T00:08:27.143Z,0.00
2018-11-22T00:09:27.097Z,0.00
2018-11-22T00:10:27.046Z,0.00
2018-11-22T00:11:26.999Z,0.00
2018-11-22T00:12:26.951Z,0.00
2018-11-22T00:13:26.905Z,0.00
2018-11-22T00:14:26.855Z,0.00
2018-11-22T00:15:26.807Z,0.00
2018-11-22T00:16:26.761Z,0.00
2018-11-22T00:17:26.712Z,0.00
2018-11-22T00:18:26.667Z,0.00
2018-11-22T00:19:26.617Z,0.00
2018-11-22T00:20:26.569Z,0.00
2018-11-22T00:21:26.526Z,0.00
2018-11-22T00:22:26.474Z,0.00
2018-11-22T00:23:26.428Z,0.00
2018-11-22T00:24:26.380Z,0.00
2018-11-22T00:25:26.334Z,0.00
2018-11-22T00:26:26.284Z,0.00
2018-11-22T00:27:26.236Z,0.00
2018-11-22T00:28:26.188Z,0.00
2018-11-22T00:29:26.141Z,0.00
2018-11-22T00:30:26.094Z,0.00
2018-11-22T00:31:26.046Z,0.00
2018-11-22T00:32:25.998Z,0.00
2018-11-22T00:33:25.951Z,0.00
2018-11-22T00:34:25.904Z,0.00
2018-11-22T00:35:25.855Z,0.00
2018-11-22T00:36:25.809Z,0.00
2018-11-22T00:37:25.760Z,0.00
2018-11-22T00:38:25.713Z,0.00
2018-11-22T00:39:25.671Z,0.00
2018-11-22T00:40:25.621Z,0.00
2018-11-22T00:41:25.570Z,0.00
2018-11-22T00:42:25.522Z,0.00
2018-11-22T00:43:25.477Z,0.00
2018-11-22T00:44:25.433Z,0.00
2018-11-22T00:45:25.385Z,0.00
2018-11-22T00:46:25.333Z,0.00
2018-11-22T00:47:25.288Z,0.00
2018-11-22T00:48:25.237Z,0.00
2018-11-22T00:49:25.195Z,0.00
2018-11-22T00:50:25.142Z,0.00
2018-11-22T00:51:25.095Z,0.00
2018-11-22T00:52:25.047Z,0.00
2018-11-22T00:53:25.000Z,0.00
2018-11-22T00:54:24.953Z,0.00
2018-11-22T00:55:24.906Z,0.00
2018-11-22T00:56:24.857Z,0.00
2018-11-22T00:57:24.809Z,0.00
2018-11-22T00:58:24.762Z,0.00
2018-11-22T00:59:24.714Z,0.00
2018-11-22T01:00:24.667Z,0.00
2018-11-22T01:01:24.619Z,0.00
2018-11-22T01:02:24.576Z,0.00
2018-11-22T01:03:24.524Z,0.00
2018-11-22T01:04:24.477Z,0.00
2018-11-22T01:05:24.429Z,0.00
2018-11-22T01:06:24.382Z,0.00
2018-11-22T01:07:24.334Z,0.00
2018-11-22T01:08:24.289Z,0.00
2018-11-22T01:09:24.239Z,0.00
2018-11-22T01:10:24.193Z,0.00
2018-11-22T01:11:24.097Z,0.00
2018-11-22T01:12:24.097Z,0.00
2018-11-22T01:13:24.049Z,0.00
2018-11-22T01:14:24.002Z,0.00
2018-11-22T01:15:23.956Z,0.00
2018-11-22T01:16:23.907Z,0.00
2018-11-22T01:17:23.859Z,0.00
2018-11-22T01:18:23.812Z,0.00
2018-11-22T01:19:23.764Z,0.00
2018-11-22T01:20:23.717Z,0.00
2018-11-22T01:21:23.669Z,0.00
2018-11-22T01:22:23.621Z,0.00
2018-11-22T01:23:23.575Z,0.00
2018-11-22T01:24:23.528Z,0.00
2018-11-22T01:25:23.479Z,0.00
2018-11-22T01:26:23.432Z,0.00
2018-11-22T01:27:23.385Z,0.00
2018-11-22T01:28:23.336Z,0.00
2018-11-22T01:29:23.289Z,0.00
2018-11-22T01:30:23.241Z,0.00
2018-11-22T01:31:23.194Z,0.00
2018-11-22T01:32:23.146Z,0.00
2018-11-22T01:33:23.099Z,0.00
2018-11-22T01:34:23.053Z,0.00
2018-11-22T01:35:23.004Z,0.00
2018-11-22T01:36:22.957Z,0.00
2018-11-22T01:37:22.908Z,0.00
2018-11-22T01:38:22.861Z,0.00
2018-11-22T01:39:22.814Z,0.00
2018-11-22T01:40:22.768Z,0.00
2018-11-22T01:41:22.719Z,0.00
2018-11-22T01:42:22.672Z,0.00
2018-11-22T01:43:22.624Z,0.00
2018-11-22T01:44:22.576Z,0.00
2018-11-22T01:45:22.529Z,0.00
2018-11-22T01:46:22.482Z,0.00
2018-11-22T01:47:22.434Z,0.00
2018-11-22T01:48:22.387Z,0.00
2018-11-22T01:49:22.339Z,0.00
2018-11-22T01:50:22.293Z,0.00
2018-11-22T01:51:22.245Z,0.00
2018-11-22T01:52:22.197Z,0.00
2018-11-22T01:53:22.153Z,0.00
2018-11-22T01:54:22.107Z,0.00
2018-11-22T01:55:22.055Z,0.00
2018-11-22T01:56:22.007Z,0.00
2018-11-22T01:57:21.960Z,0.00
2018-11-22T01:58:21.914Z,0.00
2018-11-22T01:59:21.866Z,0.00
2018-11-22T02:00:21.818Z,0.00
2018-11-22T02:01:21.773Z,0.00
2018-11-22T02:02:21.723Z,0.00
2018-11-22T02:03:21.676Z,0.00
2018-11-22T02:04:21.628Z,0.00
2018-11-22T02:05:21.581Z,0.00
2018-11-22T02:06:22.613Z,0.00
2018-11-22T02:07:21.486Z,0.00
2018-11-22T02:08:21.439Z,0.00
2018-11-22T02:09:21.391Z,0.00
2018-11-22T02:10:21.345Z,0.00
2018-11-22T02:11:21.297Z,0.00
2018-11-22T02:12:21.252Z,0.00
2018-11-22T02:13:21.201Z,0.00
2018-11-22T02:14:21.154Z,0.00
2018-11-22T02:15:21.110Z,0.00
2018-11-22T02:16:21.059Z,0.00
2018-11-22T02:17:21.012Z,0.00
2018-11-22T02:18:20.964Z,0.00
2018-11-22T02:19:20.917Z,0.00
2018-11-22T02:20:20.869Z,0.00
2018-11-22T02:21:20.822Z,0.00
2018-11-22T02:22:20.775Z,0.00
2018-11-22T02:23:20.727Z,0.00
2018-11-22T02:24:20.679Z,0.00
2018-11-22T02:25:20.632Z,0.00
2018-11-22T02:26:20.585Z,0.00
2018-11-22T02:27:20.537Z,0.00
2018-11-22T02:28:20.490Z,0.00
2018-11-22T02:29:20.442Z,0.00
2018-11-22T02:30:20.396Z,0.00
2018-11-22T02:31:20.347Z,0.00
2018-11-22T02:32:20.302Z,0.00
2018-11-22T02:33:20.254Z,0.00
2018-11-22T02:34:20.206Z,0.00
2018-11-22T02:35:20.161Z,0.00
2018-11-22T02:36:20.111Z,0.00
2018-11-22T02:37:20.064Z,0.00
2018-11-22T02:38:20.015Z,0.00
2018-11-22T02:39:19.968Z,0.00
2018-11-22T02:40:19.921Z,0.00
2018-11-22T02:41:19.874Z,0.00
2018-11-22T02:42:19.826Z,0.00
2018-11-22T02:43:19.778Z,0.00
2018-11-22T02:44:19.734Z,0.00
2018-11-22T02:45:19.695Z,0.00
2018-11-22T02:46:19.640Z,0.00
2018-11-22T02:47:19.589Z,0.00
2018-11-22T02:48:19.541Z,0.00
2018-11-22T02:49:19.493Z,0.00
2018-11-22T02:50:19.446Z,0.00
2018-11-22T02:51:19.398Z,0.00
2018-11-22T02:52:19.351Z,0.00
2018-11-22T02:53:19.304Z,0.00
2018-11-22T02:54:19.256Z,0.00
2018-11-22T02:55:19.209Z,0.00
2018-11-22T02:56:19.161Z,0.00
2018-11-22T02:57:19.113Z,0.00
2018-11-22T02:58:19.067Z,0.00
2018-11-22T02:59:19.022Z,0.00
2018-11-22T03:00:18.971Z,0.00
2018-11-22T03:01:18.927Z,0.00
2018-11-22T03:02:18.877Z,0.00
2018-11-22T03:03:18.829Z,0.00
2018-11-22T03:04:18.791Z,0.00
2018-11-22T03:05:18.736Z,0.00
2018-11-22T03:06:18.690Z,0.00
2018-11-22T03:07:18.639Z,0.00
2018-11-22T03:08:18.593Z,0.00
2018-11-22T03:09:18.545Z,0.00
2018-11-22T03:10:18.497Z,0.00
2018-11-22T03:11:18.450Z,0.00
2018-11-22T03:12:18.403Z,0.00
2018-11-22T03:13:18.355Z,0.00
2018-11-22T03:14:18.307Z,0.00
2018-11-22T03:15:18.260Z,0.00
2018-11-22T03:16:18.213Z,0.00
2018-11-22T03:17:18.169Z,0.00
2018-11-22T03:18:18.118Z,0.00
2018-11-22T03:19:18.070Z,0.00
2018-11-22T03:20:18.025Z,0.00
2018-11-22T03:21:17.977Z,0.00
2018-11-22T03:22:17.928Z,0.00
2018-11-22T03:23:17.881Z,0.00
2018-11-22T03:24:17.837Z,0.00
2018-11-22T03:25:17.989Z,0.00
2018-11-22T03:26:17.739Z,0.00
2018-11-22T03:27:17.692Z,0.00
2018-11-22T03:28:17.644Z,0.00
2018-11-22T03:29:17.596Z,0.00
2018-11-22T03:30:17.554Z,0.00
2018-11-22T03:31:17.502Z,0.00
2018-11-22T03:32:17.455Z,0.00
2018-11-22T03:33:17.409Z,0.00
2018-11-22T03:34:17.360Z,0.00
2018-11-22T03:35:17.312Z,0.00
2018-11-22T03:36:17.266Z,0.00
2018-11-22T03:37:17.217Z,0.00
2018-11-22T03:38:17.170Z,0.00
2018-11-22T03:39:17.123Z,0.00
2018-11-22T03:40:17.076Z,0.00
2018-11-22T03:41:17.076Z,0.00
2018-11-22T03:42:16.981Z,0.00
2018-11-22T03:43:16.935Z,0.00
2018-11-22T03:44:16.886Z,0.00
2018-11-22T03:45:16.839Z,0.00
2018-11-22T03:46:16.792Z,0.00
2018-11-22T03:47:16.745Z,0.00
2018-11-22T03:48:16.697Z,0.00
2018-11-22T03:49:16.650Z,0.00
2018-11-22T03:50:16.602Z,0.00
2018-11-22T03:51:16.607Z,0.00
2018-11-22T03:52:16.509Z,0.00
2018-11-22T03:53:16.460Z,0.00
2018-11-22T03:54:16.423Z,0.00
2018-11-22T03:55:16.374Z,0.00
2018-11-22T03:56:16.319Z,0.00
2018-11-22T03:57:16.271Z,0.00
2018-11-22T03:58:16.224Z,0.00
2018-11-22T03:59:16.177Z,0.00
2018-11-22T04:00:16.129Z,0.00
2018-11-22T04:01:16.081Z,0.00
2018-11-22T04:02:16.034Z,0.00
2018-11-22T04:03:15.987Z,0.00
2018-11-22T04:04:15.940Z,0.00
2018-11-22T04:05:15.898Z,0.00
2018-11-22T04:06:15.852Z,0.00
2018-11-22T04:07:15.798Z,0.00
2018-11-22T04:08:15.752Z,0.00
2018-11-22T04:09:15.704Z,0.00
2018-11-22T04:10:15.656Z,0.00
2018-11-22T04:11:15.609Z,0.00
2018-11-22T04:12:15.562Z,0.00
2018-11-22T04:13:15.514Z,0.00
2018-11-22T04:14:15.466Z,0.00
2018-11-22T04:15:15.418Z,0.00
2018-11-22T04:16:15.371Z,0.00
2018-11-22T04:17:15.326Z,0.00
2018-11-22T04:18:15.277Z,0.00
2018-11-22T04:19:15.230Z,0.00
2018-11-22T04:20:15.183Z,0.00
2018-11-22T04:21:15.136Z,0.00
2018-11-22T04:22:15.088Z,0.00
2018-11-22T04:23:15.041Z,0.00
2018-11-22T04:24:14.993Z,0.00
2018-11-22T04:25:14.947Z,0.00
2018-11-22T04:26:14.899Z,0.00
2018-11-22T04:27:14.852Z,0.00
2018-11-22T04:28:14.804Z,0.00
2018-11-22T04:29:14.799Z,0.00
2018-11-22T04:30:14.709Z,0.00
2018-11-22T04:31:14.673Z,0.00
2018-11-22T04:32:14.614Z,0.00
2018-11-22T04:33:14.567Z,0.00
2018-11-22T04:34:14.520Z,0.00
2018-11-22T04:35:14.472Z,0.00
2018-11-22T04:36:14.426Z,0.00
2018-11-22T04:37:14.383Z,0.00
2018-11-22T04:38:14.331Z,0.00
2018-11-22T04:39:14.283Z,0.00
2018-11-22T04:40:14.237Z,0.00
2018-11-22T04:41:14.188Z,0.00
2018-11-22T04:42:14.141Z,0.00
2018-11-22T04:43:14.094Z,0.00
2018-11-22T04:44:14.046Z,0.00
2018-11-22T04:45:13.999Z,0.00
2018-11-22T04:46:13.951Z,0.00
2018-11-22T04:47:13.904Z,0.00
2018-11-22T04:48:13.857Z,0.00
2018-11-22T04:49:13.809Z,0.00
2018-11-22T04:50:13.762Z,0.00
2018-11-22T04:51:13.715Z,0.00
2018-11-22T04:52:13.667Z,0.00
2018-11-22T04:53:13.620Z,0.00
2018-11-22T04:54:13.572Z,0.00
2018-11-22T04:55:13.526Z,0.00
2018-11-22T04:56:13.481Z,0.00
2018-11-22T04:57:13.431Z,0.00
2018-11-22T04:58:13.384Z,0.00
2018-11-22T04:59:13.336Z,0.00
2018-11-22T05:00:13.299Z,0.00
2018-11-22T05:01:13.241Z,0.00
2018-11-22T05:02:13.194Z,0.00
2018-11-22T05:03:13.147Z,0.00
2018-11-22T05:04:13.100Z,0.00
2018-11-22T05:05:13.052Z,0.00
2018-11-22T05:06:13.006Z,0.00
2018-11-22T05:07:12.958Z,0.00
2018-11-22T05:08:12.914Z,0.00
2018-11-22T05:09:12.864Z,0.00
2018-11-22T05:10:12.819Z,0.00
2018-11-22T05:11:12.770Z,0.00
2018-11-22T05:12:12.721Z,0.00
2018-11-22T05:13:12.674Z,0.00
2018-11-22T05:14:12.628Z,0.00
2018-11-22T05:15:12.581Z,0.00
2018-11-22T05:16:12.534Z,0.00
2018-11-22T05:17:12.486Z,0.00
2018-11-22T05:18:12.439Z,0.00
2018-11-22T05:19:12.392Z,0.00
2018-11-22T05:20:12.345Z,0.00
2018-11-22T05:21:12.297Z,0.00
2018-11-22T05:22:12.251Z,0.00
2018-11-22T05:23:12.204Z,0.00
2018-11-22T05:24:12.155Z,0.00
2018-11-22T05:25:12.108Z,0.00
2018-11-22T05:26:12.061Z,0.00
2018-11-22T05:27:12.014Z,0.00
2018-11-22T05:28:11.976Z,0.00
2018-11-22T05:29:12.503Z,0.00
2018-11-22T05:30:11.872Z,0.00
2018-11-22T05:31:11.827Z,0.00
2018-11-22T05:32:11.778Z,0.00
2018-11-22T05:33:11.730Z,0.00
2018-11-22T05:34:11.683Z,0.00
2018-11-22T05:35:11.639Z,0.00
2018-11-22T05:36:11.589Z,0.00
2018-11-22T05:37:11.543Z,0.00
2018-11-22T05:38:11.494Z,0.00
2018-11-22T05:39:11.450Z,0.00
2018-11-22T05:40:11.401Z,0.00
2018-11-22T05:41:11.352Z,0.00
2018-11-22T05:42:11.308Z,0.00
2018-11-22T05:43:11.258Z,0.00
2018-11-22T05:44:11.211Z,0.00
2018-11-22T05:45:11.164Z,0.00
2018-11-22T05:46:11.121Z,0.00
2018-11-22T05:47:11.070Z,0.00
2018-11-22T05:48:11.022Z,0.00
2018-11-22T05:49:10.975Z,0.00
2018-11-22T05:50:10.932Z,0.00
2018-11-22T05:51:10.881Z,0.00
2018-11-22T05:52:10.833Z,0.00
2018-11-22T05:53:10.786Z,0.00
2018-11-22T05:54:10.739Z,0.00
2018-11-22T05:55:10.692Z,0.00
2018-11-22T05:56:10.645Z,0.00
2018-11-22T05:57:10.597Z,0.00
2018-11-22T05:58:10.550Z,0.00
2018-11-22T05:59:10.505Z,0.00
2018-11-22T06:00:10.456Z,0.00
2018-11-22T06:01:10.409Z,0.00
2018-11-22T06:02:10.362Z,0.00
2018-11-22T06:03:10.314Z,0.00
2018-11-22T06:04:10.267Z,0.00
2018-11-22T06:05:10.222Z,0.00
2018-11-22T06:06:10.173Z,0.00
2018-11-22T06:07:10.126Z,0.00
2018-11-22T06:08:10.079Z,0.00
2018-11-22T06:09:10.033Z,0.00
2018-11-22T06:10:09.990Z,0.00
2018-11-22T06:11:09.938Z,0.00
2018-11-22T06:12:09.890Z,0.00
2018-11-22T06:13:09.845Z,0.00
2018-11-22T06:14:09.797Z,0.00
2018-11-22T06:15:09.698Z,0.00
2018-11-22T06:16:09.701Z,0.00
2018-11-22T06:17:09.654Z,0.00
2018-11-22T06:18:09.606Z,0.00
2018-11-22T06:19:09.560Z,0.00
2018-11-22T06:20:09.512Z,0.00
2018-11-22T06:21:09.465Z,0.00
2018-11-22T06:22:09.417Z,0.00
2018-11-22T06:23:09.371Z,0.00
2018-11-22T06:24:09.323Z,0.00
2018-11-22T06:25:09.276Z,0.00
2018-11-22T06:26:09.228Z,0.00
2018-11-22T06:27:09.183Z,0.00
2018-11-22T06:28:09.136Z,0.00
2018-11-22T06:29:09.087Z,0.00
2018-11-22T06:30:09.042Z,0.00
2018-11-22T06:31:08.993Z,0.00
2018-11-22T06:32:08.945Z,0.00
2018-11-22T06:33:08.898Z,0.00
2018-11-22T06:34:08.851Z,0.00
2018-11-22T06:35:10.003Z,0.00
2018-11-22T06:36:08.756Z,0.00
2018-11-22T06:37:08.709Z,0.00
2018-11-22T06:38:08.667Z,0.00
2018-11-22T06:39:08.614Z,0.00
2018-11-22T06:40:08.768Z,0.00
2018-11-22T06:41:08.520Z,0.00
2018-11-22T06:42:08.478Z,0.00
2018-11-22T06:43:08.425Z,0.00
2018-11-22T06:44:08.379Z,0.00
2018-11-22T06:45:08.331Z,0.00
2018-11-22T06:46:08.283Z,0.00
2018-11-22T06:47:08.239Z,0.00
2018-11-22T06:48:08.189Z,0.00
2018-11-22T06:49:08.141Z,0.00
2018-11-22T06:50:08.096Z,0.00
2018-11-22T06:51:08.050Z,0.00
2018-11-22T06:52:08.000Z,0.00
2018-11-22T06:53:07.953Z,0.00
2018-11-22T06:54:07.906Z,0.00
2018-11-22T06:55:07.858Z,0.00
2018-11-22T06:56:07.811Z,0.00
2018-11-22T06:57:07.763Z,0.00
2018-11-22T06:58:07.716Z,0.00
2018-11-22T06:59:07.670Z,0.00
2018-11-22T07:00:07.629Z,0.00
2018-11-22T07:01:07.574Z,0.00
2018-11-22T07:02:07.527Z,0.00
2018-11-22T07:03:07.480Z,0.00
2018-11-22T07:04:07.432Z,0.00
2018-11-22T07:05:07.385Z,0.00
2018-11-22T07:06:07.338Z,0.00
2018-11-22T07:07:07.290Z,0.00
2018-11-22T07:08:07.243Z,0.00
2018-11-22T07:09:07.195Z,0.00
2018-11-22T07:10:07.149Z,0.00
2018-11-22T07:11:07.101Z,0.00
2018-11-22T07:12:07.054Z,0.00
2018-11-22T07:13:07.014Z,0.00
2018-11-22T07:14:06.959Z,0.00
2018-11-22T07:15:06.912Z,0.00
2018-11-22T07:16:06.865Z,0.00
2018-11-22T07:17:06.817Z,0.00
2018-11-22T07:18:06.770Z,0.00
2018-11-22T07:19:06.722Z,0.00
2018-11-22T07:20:06.625Z,0.00
2018-11-22T07:21:06.628Z,0.00
2018-11-22T07:22:06.580Z,0.00
2018-11-22T07:23:06.535Z,0.00
2018-11-22T07:24:06.486Z,0.00
2018-11-22T07:25:06.440Z,0.00
2018-11-22T07:26:06.395Z,0.00
2018-11-22T07:27:06.344Z,0.00
2018-11-22T07:28:06.297Z,0.00
2018-11-22T07:29:06.249Z,0.00
2018-11-22T07:30:06.203Z,0.00
2018-11-22T07:31:06.155Z,0.00
2018-11-22T07:32:06.107Z,0.00
2018-11-22T07:33:06.060Z,0.00
2018-11-22T07:34:06.012Z,0.00
2018-11-22T07:35:05.965Z,0.00
2018-11-22T07:36:05.917Z,0.00
2018-11-22T07:37:05.871Z,0.00
2018-11-22T07:38:05.823Z,0.00
2018-11-22T07:39:05.780Z,0.00
2018-11-22T07:40:05.728Z,0.00
2018-11-22T07:41:05.681Z,0.00
2018-11-22T07:42:05.633Z,0.00
2018-11-22T07:43:05.585Z,0.00
2018-11-22T07:44:06.370Z,0.00
2018-11-22T07:45:05.493Z,0.00
2018-11-22T07:46:05.443Z,0.00
2018-11-22T07:47:05.397Z,0.00
2018-11-22T07:48:05.349Z,0.00
2018-11-22T07:49:05.301Z,0.00
2018-11-22T07:50:05.260Z,4.00
2018-11-22T07:51:05.206Z,0.00
2018-11-22T07:52:05.162Z,0.00
2018-11-22T07:53:05.111Z,4.00
2018-11-22T07:54:05.063Z,4.00
2018-11-22T07:55:05.018Z,4.00
2018-11-22T07:56:04.970Z,8.00
2018-11-22T07:57:04.921Z,8.00
2018-11-22T07:58:04.873Z,8.00
2018-11-22T07:59:04.829Z,8.00
2018-11-22T08:00:04.779Z,8.00
2018-11-22T08:01:04.731Z,8.00
2018-11-22T08:02:04.684Z,12.00
2018-11-22T08:03:04.636Z,12.00
2018-11-22T08:04:04.589Z,16.00
2018-11-22T08:05:04.542Z,20.00
2018-11-22T08:06:04.493Z,20.00
2018-11-22T08:07:04.447Z,32.00
2018-11-22T08:08:04.399Z,36.00
2018-11-22T08:09:04.351Z,40.00
2018-11-22T08:10:04.306Z,48.00
2018-11-22T08:11:04.260Z,56.00
2018-11-22T08:12:04.212Z,68.00
2018-11-22T08:13:04.161Z,76.00
2018-11-22T08:14:04.114Z,88.00
2018-11-22T08:15:04.068Z,96.00
2018-11-22T08:16:04.020Z,104.00
2018-11-22T08:17:03.974Z,124.00
2018-11-22T08:18:03.924Z,144.00
2018-11-22T08:19:03.876Z,164.00
2018-11-22T08:20:03.842Z,192.00
2018-11-22T08:21:04.914Z,216.00
2018-11-22T08:22:03.735Z,244.00
2018-11-22T08:23:03.686Z,268.00
2018-11-22T08:24:03.639Z,288.00
2018-11-22T08:25:03.592Z,296.00
2018-11-22T08:26:03.546Z,304.00
2018-11-22T08:27:03.496Z,332.00
2018-11-22T08:28:03.450Z,364.00
2018-11-22T08:29:03.404Z,396.00
2018-11-22T08:30:03.355Z,428.00
2018-11-22T08:31:03.307Z,456.00
2018-11-22T08:32:03.260Z,496.00
2018-11-22T08:33:03.212Z,540.00
2018-11-22T08:34:03.165Z,560.00
2018-11-22T08:35:03.116Z,548.00
2018-11-22T08:36:03.070Z,568.00
2018-11-22T08:37:03.022Z,604.00
2018-11-22T08:38:02.975Z,648.00
2018-11-22T08:39:02.927Z,708.00
2018-11-22T08:40:02.884Z,832.00
2018-11-22T08:41:02.833Z,932.00
2018-11-22T08:42:02.785Z,1128.00
2018-11-22T08:43:02.738Z,1208.00
2018-11-22T08:44:02.694Z,932.00
2018-11-22T08:45:02.672Z,1112.00
2018-11-22T08:46:02.603Z,1604.00
2018-11-22T08:47:02.549Z,1916.00
2018-11-22T08:48:02.501Z,2184.00
2018-11-22T08:49:02.466Z,2508.00
2018-11-22T08:50:02.409Z,2788.00
2018-11-22T08:51:02.362Z,2484.00
2018-11-22T08:52:02.356Z,2348.00
2018-11-22T08:53:02.265Z,2572.00
2018-11-22T08:54:02.225Z,2164.00
2018-11-22T08:55:02.183Z,1992.00
2018-11-22T08:56:02.125Z,2040.00
2018-11-22T08:57:02.084Z,1940.00
2018-11-22T08:58:02.036Z,2064.00
2018-11-22T08:59:01.986Z,2860.00
2018-11-22T09:00:01.938Z,3940.00
2018-11-22T09:01:01.891Z,4200.00
2018-11-22T09:02:01.846Z,3124.00
2018-11-22T09:03:01.799Z,2360.00
2018-11-22T09:04:01.752Z,2592.00
2018-11-22T09:05:01.706Z,3464.00
2018-11-22T09:06:01.660Z,4544.00
2018-11-22T09:07:01.612Z,4940.00
2018-11-22T09:08:01.609Z,4544.00
2018-11-22T09:09:01.523Z,3904.00
2018-11-22T09:10:02.437Z,3204.00
2018-11-22T09:11:01.429Z,3696.00
2018-11-22T09:12:01.385Z,5228.00
2018-11-22T09:13:01.339Z,6172.00
2018-11-22T09:14:01.299Z,5728.00
2018-11-22T09:15:01.249Z,4848.00
2018-11-22T09:16:01.202Z,3548.00
2018-11-22T09:17:01.157Z,2780.00
2018-11-22T09:18:01.112Z,2708.00
2018-11-22T09:19:01.067Z,3456.00
2018-11-22T09:20:01.022Z,6144.00
2018-11-22T09:21:00.975Z,9096.00
2018-11-22T09:22:00.936Z,9656.00
2018-11-22T09:23:00.886Z,5496.00
2018-11-22T09:24:00.840Z,9796.00
2018-11-22T09:25:00.795Z,9500.00
2018-11-22T09:26:00.755Z,8708.00
2018-11-22T09:27:00.710Z,10480.00
2018-11-22T09:28:00.662Z,10784.00
2018-11-22T09:29:00.619Z,10968.00
2018-11-22T09:30:00.582Z,10784.00
2018-11-22T09:31:00.532Z,11160.00
2018-11-22T09:32:00.488Z,11492.00
2018-11-22T09:33:00.443Z,11644.00
2018-11-22T09:34:00.400Z,11256.00
2018-11-22T09:35:00.357Z,12456.00
2018-11-22T09:36:00.314Z,12128.00
2018-11-22T09:37:00.274Z,12012.00
2018-11-22T09:38:00.230Z,12096.00
2018-11-22T09:39:00.190Z,12276.00
2018-11-22T09:40:00.145Z,12460.00
2018-11-22T09:41:00.102Z,12480.00
2018-11-22T09:42:00.107Z,12416.00
2018-11-22T09:43:00.019Z,12668.00
2018-11-22T09:43:59.991Z,13164.00
2018-11-22T09:44:59.937Z,12744.00
2018-11-22T09:45:59.897Z,11732.00
2018-11-22T09:46:59.856Z,12528.00
2018-11-22T09:47:59.820Z,4632.00
2018-11-22T09:48:59.774Z,12844.00
2018-11-22T09:49:59.736Z,12464.00
2018-11-22T09:50:59.699Z,12416.00
2018-11-22T09:51:59.657Z,3612.00
2018-11-22T09:52:59.616Z,3664.00
2018-11-22T09:53:59.576Z,8712.00
2018-11-22T09:54:59.534Z,9600.00
2018-11-22T09:55:59.495Z,2796.00
2018-11-22T09:56:59.455Z,13984.00
2018-11-22T09:57:59.420Z,14144.00
2018-11-22T09:58:59.436Z,14144.00
2018-11-22T09:59:59.334Z,14688.00
2018-11-22T10:00:59.304Z,14080.00
2018-11-22T10:01:59.254Z,14368.00
2018-11-22T10:02:59.250Z,14848.00
2018-11-22T10:03:59.180Z,15040.00
2018-11-22T10:04:59.336Z,14624.00
2018-11-22T10:05:59.108Z,15840.00
2018-11-22T10:06:59.058Z,14592.00
2018-11-22T10:07:59.019Z,14880.00
2018-11-22T10:08:58.983Z,14976.00
2018-11-22T10:09:58.940Z,14976.00
2018-11-22T10:10:58.901Z,14720.00
2018-11-22T10:11:58.869Z,12028.00
2018-11-22T10:12:58.828Z,15776.00
2018-11-22T10:13:58.786Z,17088.00
2018-11-22T10:14:58.747Z,17632.00
2018-11-22T10:15:58.712Z,18208.00
2018-11-22T10:16:58.700Z,17760.00
2018-11-22T10:17:58.640Z,17472.00
2018-11-22T10:18:58.595Z,17216.00
2018-11-22T10:19:58.557Z,14200.00
2018-11-22T10:20:58.548Z,10820.00
2018-11-22T10:21:58.481Z,9304.00
2018-11-22T10:22:58.446Z,7652.00
2018-11-22T10:23:58.515Z,6300.00
2018-11-22T10:24:58.369Z,5568.00
2018-11-22T10:25:58.336Z,5064.00
2018-11-22T10:26:58.295Z,4856.00
2018-11-22T10:27:58.255Z,4612.00
2018-11-22T10:28:58.214Z,4484.00
2018-11-22T10:29:58.176Z,4480.00
2018-11-22T10:30:58.145Z,4588.00
2018-11-22T10:31:58.106Z,4788.00
2018-11-22T10:32:58.063Z,4860.00
2018-11-22T10:33:58.041Z,4980.00
2018-11-22T10:34:57.978Z,4924.00
2018-11-22T10:35:57.938Z,4900.00
2018-11-22T10:36:57.897Z,4876.00
2018-11-22T10:37:58.001Z,4924.00
2018-11-22T10:38:57.869Z,4676.00
2018-11-22T10:39:57.775Z,4580.00
2018-11-22T10:40:57.743Z,4496.00
2018-11-22T10:41:57.697Z,4480.00
2018-11-22T10:42:57.653Z,4320.00
2018-11-22T10:43:57.617Z,4300.00
2018-11-22T10:44:57.570Z,4364.00
2018-11-22T10:45:57.538Z,4284.00
2018-11-22T10:46:57.492Z,4244.00
2018-11-22T10:47:57.453Z,4192.00
2018-11-22T10:48:57.404Z,4144.00
2018-11-22T10:49:57.365Z,4108.00
2018-11-22T10:50:57.327Z,4180.00
2018-11-22T10:51:57.285Z,4360.00
2018-11-22T10:52:57.234Z,4368.00
2018-11-22T10:53:57.193Z,4268.00
2018-11-22T10:54:57.152Z,4076.00
2018-11-22T10:55:57.107Z,3960.00
2018-11-22T10:56:57.075Z,3880.00
2018-11-22T10:57:57.023Z,3888.00
2018-11-22T10:58:57.066Z,3900.00
2018-11-22T10:59:56.939Z,3848.00
2018-11-22T11:00:56.895Z,3804.00
2018-11-22T11:01:56.856Z,3768.00
2018-11-22T11:02:56.809Z,3776.00
2018-11-22T11:03:56.764Z,3748.00
2018-11-22T11:04:56.724Z,3732.00
2018-11-22T11:05:56.681Z,3760.00
2018-11-22T11:06:56.636Z,3716.00
2018-11-22T11:07:56.594Z,3712.00
2018-11-22T11:08:56.551Z,3688.00
2018-11-22T11:09:56.508Z,3680.00
2018-11-22T11:10:56.467Z,3688.00
2018-11-22T11:11:56.422Z,3704.00
2018-11-22T11:12:56.377Z,3712.00
2018-11-22T11:13:56.343Z,3704.00
2018-11-22T11:14:56.309Z,3680.00
2018-11-22T11:15:56.251Z,3708.00
2018-11-22T11:16:56.206Z,3720.00
2018-11-22T11:17:56.169Z,3716.00
2018-11-22T11:18:56.122Z,3700.00
2018-11-22T11:19:56.076Z,3676.00
2018-11-22T11:20:56.032Z,3588.00
2018-11-22T11:21:55.987Z,3604.00
2018-11-22T11:22:55.949Z,3608.00
2018-11-22T11:23:55.906Z,3604.00
2018-11-22T11:24:55.857Z,3660.00
2018-11-22T11:25:55.826Z,3308.00
2018-11-22T11:26:55.786Z,3732.00
2018-11-22T11:27:55.764Z,3800.00
2018-11-22T11:28:55.685Z,3572.00
2018-11-22T11:29:55.648Z,3928.00
2018-11-22T11:30:55.597Z,3604.00
2018-11-22T11:31:55.560Z,3584.00
2018-11-22T11:32:55.509Z,3540.00
2018-11-22T11:33:55.465Z,3484.00
2018-11-22T11:34:55.420Z,3884.00
2018-11-22T11:35:55.389Z,3460.00
2018-11-22T11:36:55.341Z,4456.00
2018-11-22T11:37:55.290Z,4432.00
2018-11-22T11:38:55.255Z,4328.00
2018-11-22T11:40:00.571Z,4772.00
2018-11-22T11:40:55.158Z,4668.00
2018-11-22T11:41:55.118Z,4948.00
2018-11-22T11:42:55.077Z,4220.00
2018-11-22T11:43:55.032Z,4948.00
2018-11-22T11:44:54.989Z,4520.00
2018-11-22T11:45:54.941Z,4896.00
2018-11-22T11:46:54.904Z,4144.00
2018-11-22T11:47:54.853Z,4908.00
2018-11-22T11:48:54.817Z,4264.00
2018-11-22T11:49:54.774Z,4784.00
2018-11-22T11:50:54.722Z,4752.00
2018-11-22T11:51:54.680Z,4180.00
2018-11-22T11:52:54.635Z,4124.00
2018-11-22T11:53:54.603Z,4036.00
2018-11-22T11:54:54.551Z,3760.00
2018-11-22T11:55:54.505Z,4440.00
2018-11-22T11:56:54.462Z,4396.00
2018-11-22T11:57:54.418Z,4380.00
2018-11-22T11:58:54.374Z,4352.00
2018-11-22T11:59:54.330Z,3944.00
2018-11-22T12:00:54.292Z,3396.00
2018-11-22T12:01:54.245Z,4168.00
2018-11-22T12:02:54.199Z,4128.00
2018-11-22T12:03:54.158Z,4100.00
2018-11-22T12:04:54.128Z,4128.00
2018-11-22T12:05:54.070Z,4092.00
2018-11-22T12:06:54.027Z,4060.00
2018-11-22T12:07:53.982Z,3912.00
2018-11-22T12:08:53.939Z,4064.00
2018-11-22T12:09:56.291Z,4104.00
2018-11-22T12:10:53.853Z,4108.00
2018-11-22T12:11:53.809Z,4044.00
2018-11-22T12:12:53.765Z,3988.00
2018-11-22T12:13:53.723Z,4024.00
2018-11-22T12:14:53.677Z,4000.00
2018-11-22T12:15:54.127Z,3972.00
2018-11-22T12:16:53.593Z,3928.00
2018-11-22T12:17:53.548Z,3896.00
2018-11-22T12:18:53.509Z,3848.00
2018-11-22T12:19:53.480Z,3808.00
2018-11-22T12:20:53.471Z,3780.00
2018-11-22T12:21:53.373Z,3764.00
2018-11-22T12:22:53.337Z,3724.00
2018-11-22T12:23:53.301Z,3704.00
2018-11-22T12:24:53.247Z,3644.00
2018-11-22T12:25:53.212Z,3624.00
2018-11-22T12:26:53.158Z,3624.00
2018-11-22T12:27:53.123Z,3652.00
2018-11-22T12:28:53.073Z,3660.00
2018-11-22T12:29:53.030Z,3740.00
2018-11-22T12:30:52.985Z,3748.00
2018-11-22T12:31:53.409Z,3712.00
2018-11-22T12:32:52.900Z,3684.00
2018-11-22T12:33:52.860Z,3628.00
2018-11-22T12:34:52.861Z,3632.00
2018-11-22T12:35:52.769Z,3640.00
2018-11-22T12:36:52.730Z,2916.00
2018-11-22T12:37:52.697Z,3648.00
2018-11-22T12:38:52.646Z,3724.00
2018-11-22T12:39:52.596Z,3864.00
2018-11-22T12:40:52.562Z,3756.00
2018-11-22T12:41:52.513Z,4240.00
2018-11-22T12:42:52.467Z,4472.00
2018-11-22T12:43:52.426Z,4288.00
2018-11-22T12:44:52.390Z,3564.00
2018-11-22T12:45:52.355Z,3724.00
2018-11-22T12:46:52.304Z,4356.00
2018-11-22T12:47:52.253Z,4136.00
2018-11-22T12:48:52.209Z,4504.00